Time;durP1;ratioP1;P1;durP2;ratioP2;P2;SDS_P1;SDS_P2;PMS_P1;PMS_P2;Temp;Humidity;BMP_temperature;BMP_pressure;BME280_temperature;BME280_humidity;BME280_pressure;Samples;Min_cycle;Max_cycle;Signal;HPM_P1;HPM_P2
2023/03/19 00:01:34;;;;;;;14.80;11.20;;;;;;;10.84;60.69;100461.21;104674;1257;73724;-71
2023/03/19 00:04:03;;;;;;;15.10;11.40;;;;;;;10.89;60.15;100457.73;104661;1256;69975;-71
2023/03/19 00:06:31;;;;;;;16.10;11.60;;;;;;;10.89;59.86;100451.38;104735;1267;72635;-73
2023/03/19 00:09:02;;;;;;;14.70;11.50;;;;;;;10.87;60.23;100452.00;104650;1274;61088;-71
2023/03/19 00:11:33;;;;;;;16.80;11.50;;;;;;;10.83;60.12;100446.16;104696;1251;61577;-71
2023/03/19 00:14:01;;;;;;;14.70;11.60;;;;;;;10.83;60.23;100444.04;104727;1270;74698;-72
2023/03/19 00:16:31;;;;;;;15.40;11.30;;;;;;;10.78;59.62;100436.13;104798;1267;69646;-72
2023/03/19 00:19:01;;;;;;;15.30;11.60;;;;;;;10.73;60.29;100434.02;104605;1256;71333;-72
2023/03/19 00:21:31;;;;;;;16.90;12.30;;;;;;;10.75;60.60;100428.86;104713;1256;62253;-72
2023/03/19 00:24:02;;;;;;;15.70;11.50;;;;;;;10.80;60.52;100424.67;104863;1256;61687;-72
2023/03/19 00:26:32;;;;;;;17.50;11.70;;;;;;;10.80;60.61;100423.80;104654;1256;73289;-72
2023/03/19 00:29:00;;;;;;;14.60;11.40;;;;;;;10.79;60.85;100422.42;104755;1256;70760;-71
2023/03/19 00:31:29;;;;;;;12.50;10.60;;;;;;;10.80;60.20;100422.23;104546;1256;72279;-71
2023/03/19 00:33:58;;;;;;;13.70;11.00;;;;;;;10.82;60.70;100417.42;104838;1250;61701;-69
2023/03/19 00:36:27;;;;;;;13.90;11.30;;;;;;;10.83;60.43;100416.52;104588;1264;61557;-71
2023/03/19 00:38:59;;;;;;;15.00;11.30;;;;;;;10.81;60.80;100410.09;104757;1264;74458;-70
2023/03/19 00:41:31;;;;;;;13.70;11.50;;;;;;;10.82;60.69;100410.05;104695;1257;68815;-72
2023/03/19 00:43:59;;;;;;;15.90;11.00;;;;;;;10.81;60.47;100408.88;104564;1252;72375;-72
2023/03/19 00:46:31;;;;;;;13.90;11.00;;;;;;;10.83;59.90;100406.88;104877;1257;61707;-73
2023/03/19 00:48:59;;;;;;;15.70;10.30;;;;;;;10.76;59.64;100408.66;104790;1251;61711;-73
2023/03/19 00:51:32;;;;;;;13.80;10.60;;;;;;;10.66;59.97;100406.72;104694;1257;72209;-73
2023/03/19 00:54:00;;;;;;;13.90;11.00;;;;;;;10.58;59.70;100402.20;104689;1256;68296;-73
2023/03/19 00:56:29;;;;;;;14.60;11.20;;;;;;;10.53;59.61;100405.02;104725;1250;73202;-72
2023/03/19 00:58:58;;;;;;;14.30;11.00;;;;;;;10.48;58.79;100401.45;104603;1257;62121;-72
2023/03/19 01:01:26;;;;;;;14.90;11.30;;;;;;;10.45;58.63;100400.70;104786;1261;61612;-73
2023/03/19 01:03:55;;;;;;;15.20;11.30;;;;;;;10.43;58.81;100403.02;104673;1254;72285;-72
2023/03/19 01:06:24;;;;;;;15.30;11.50;;;;;;;10.41;58.75;100407.30;104915;1272;69202;-73
2023/03/19 01:08:53;;;;;;;14.40;10.80;;;;;;;10.41;57.85;100406.78;105080;1250;71388;-73
2023/03/19 01:11:22;;;;;;;14.00;10.90;;;;;;;10.48;56.93;100406.88;104966;1256;61701;-72
2023/03/19 01:13:55;;;;;;;13.10;10.20;;;;;;;10.50;56.88;100404.57;105484;1256;61672;-73
2023/03/19 01:16:23;;;;;;;12.00;10.30;;;;;;;10.39;56.63;100406.48;105132;1256;72346;-70
2023/03/19 01:18:52;;;;;;;14.80;10.20;;;;;;;10.36;57.53;100404.10;105124;1253;69303;-71
2023/03/19 01:21:20;;;;;;;13.50;10.50;;;;;;;10.31;57.04;100405.64;104764;1256;72286;-70
2023/03/19 01:23:50;;;;;;;13.30;9.80;;;;;;;10.33;56.52;100410.16;104831;1256;61614;-71
2023/03/19 01:26:20;;;;;;;13.90;10.50;;;;;;;10.33;55.83;100408.05;104558;1255;61682;-70
2023/03/19 01:28:52;;;;;;;14.80;10.80;;;;;;;10.24;55.32;100407.23;104682;1256;73247;-73
2023/03/19 01:31:21;;;;;;;12.90;9.90;;;;;;;10.14;56.03;100404.02;104715;1256;70216;-73
2023/03/19 01:33:53;;;;;;;11.90;9.80;;;;;;;10.05;55.97;100402.16;104676;1274;73242;-72
2023/03/19 01:36:54;;;;;;;13.50;10.00;;;;;;;10.00;55.71;100404.08;104759;1260;61751;-73
2023/03/19 01:39:33;;;;;;;14.00;11.10;;;;;;;9.91;56.77;100402.56;104818;1251;61717;-71
2023/03/19 01:42:05;;;;;;;12.90;10.80;;;;;;;9.87;56.38;100407.04;104719;1264;73795;-73
2023/03/19 01:44:52;;;;;;;;;;;;;;;9.83;55.56;100404.20;104765;1273;70166;-72
2023/03/19 01:47:59;;;;;;;13.70;10.90;;;;;;;9.85;54.97;100402.56;104894;1255;73909;-72
2023/03/19 01:50:42;;;;;;;13.90;10.00;;;;;;;9.80;54.47;100406.20;104815;1249;61700;-72
2023/03/19 01:53:31;;;;;;;15.90;11.00;;;;;;;9.77;55.20;100406.44;104895;1255;61705;-73
2023/03/19 01:56:19;;;;;;;12.50;9.40;;;;;;;9.69;54.59;100403.16;104783;1251;73493;-73
2023/03/19 01:59:15;;;;;;;10.60;9.40;;;;;;;9.70;54.75;100407.69;104912;1251;69655;-72
2023/03/19 02:02:12;;;;;;;11.80;9.80;;;;;;;9.67;54.24;100406.55;105078;1265;72294;-72
2023/03/19 02:04:41;;;;;;;12.70;10.50;;;;;;;9.62;54.67;100404.40;104721;1254;61693;-73
2023/03/19 02:07:10;;;;;;;12.20;10.60;;;;;;;9.59;54.45;100406.41;104844;1250;61632;-73
2023/03/19 02:09:39;;;;;;;13.30;10.20;;;;;;;9.60;54.97;100409.17;108700;1251;71826;-72
2023/03/19 02:12:09;;;;;;;12.40;9.70;;;;;;;9.61;55.44;100409.50;108833;1251;69654;-74
2023/03/19 02:14:38;;;;;;;10.20;9.20;;;;;;;9.58;55.27;100412.39;107895;1251;71713;-72
2023/03/19 02:17:07;;;;;;;10.20;8.80;;;;;;;9.61;55.28;100408.81;105268;1266;62155;-71
2023/03/19 02:19:47;;;;;;;12.80;10.60;;;;;;;9.61;55.04;100408.44;104933;1251;61707;-72
2023/03/19 02:22:21;;;;;;;15.10;10.00;;;;;;;9.63;54.78;100409.44;105137;1251;72618;-73
2023/03/19 02:24:57;;;;;;;11.10;9.80;;;;;;;9.61;54.65;100411.43;105184;1249;68828;-73
2023/03/19 02:27:25;;;;;;;12.30;9.30;;;;;;;9.56;54.70;100415.77;104707;1254;72215;-72
2023/03/19 02:29:54;;;;;;;12.40;10.50;;;;;;;9.50;54.20;100417.48;104644;1256;61788;-72
2023/03/19 02:32:23;;;;;;;11.40;9.60;;;;;;;9.46;54.44;100418.83;105326;1267;61717;-72
2023/03/19 02:34:57;;;;;;;12.00;9.40;;;;;;;9.42;57.38;100422.42;105152;1260;74060;-72
2023/03/19 02:37:27;;;;;;;12.20;9.20;;;;;;;9.43;58.46;100422.58;104998;1257;69881;-73
2023/03/19 02:40:04;;;;;;;12.80;9.40;;;;;;;9.43;58.38;100423.28;104704;1260;72299;-70
2023/03/19 02:42:32;;;;;;;10.30;9.10;;;;;;;9.38;58.47;100424.81;105081;1254;61669;-63
2023/03/19 02:45:02;;;;;;;11.10;9.30;;;;;;;9.37;57.81;100428.49;105166;1249;61630;-72
2023/03/19 02:47:30;;;;;;;11.50;10.20;;;;;;;9.36;56.90;100429.41;105185;1251;74321;-70
2023/03/19 02:49:59;;;;;;;13.30;10.50;;;;;;;9.32;57.41;100428.10;105154;1257;69476;-70
2023/03/19 02:52:28;;;;;;;15.60;11.50;;;;;;;9.32;58.34;100432.13;105083;1267;71600;-70
2023/03/19 02:54:56;;;;;;;16.40;11.90;;;;;;;9.37;58.86;100432.69;104582;1270;62116;-70
2023/03/19 02:57:25;;;;;;;15.00;12.00;;;;;;;9.43;59.18;100428.34;104735;1251;61691;-70
2023/03/19 03:00:01;;;;;;;15.80;12.20;;;;;;;9.49;59.12;100432.94;105014;1250;73280;-70
2023/03/19 03:02:30;;;;;;;16.60;13.00;;;;;;;9.53;59.24;100436.32;104935;1254;329211;-70
2023/03/19 03:05:49;;;;;;;14.00;11.10;;;;;;;8.80;73.39;100439.06;101977;1301;600594;-69
2023/03/19 03:08:18;;;;;;;15.30;10.90;;;;;;;9.88;62.49;100438.70;105431;1262;60394;-69
2023/03/19 03:10:47;;;;;;;11.80;10.20;;;;;;;9.98;61.74;100438.45;107495;1262;59031;-70
2023/03/19 03:13:16;;;;;;;13.80;10.70;;;;;;;9.94;61.41;100439.06;105056;1260;71442;-69
2023/03/19 03:15:45;;;;;;;12.40;10.50;;;;;;;9.89;62.36;100436.58;104678;1254;68305;-70
2023/03/19 03:18:14;;;;;;;18.40;11.30;;;;;;;9.86;62.82;100437.90;105026;1257;72757;-67
2023/03/19 03:20:42;;;;;;;16.40;12.80;;;;;;;9.89;62.55;100439.77;104526;1260;60347;-68
2023/03/19 03:23:10;;;;;;;16.10;12.20;;;;;;;9.94;62.54;100441.69;104724;1256;61680;-68
2023/03/19 03:25:39;;;;;;;16.00;12.20;;;;;;;10.04;61.77;100443.89;104547;1257;71775;-68
2023/03/19 03:28:11;;;;;;;20.00;13.10;;;;;;;10.08;62.01;100440.98;104720;1254;69238;-70
2023/03/19 03:30:40;;;;;;;21.10;13.90;;;;;;;10.12;61.58;100438.05;104585;1257;72057;-68
2023/03/19 03:33:08;;;;;;;23.20;12.60;;;;;;;10.12;61.60;100436.83;104965;1252;60875;-68
2023/03/19 03:35:37;;;;;;;15.70;11.80;;;;;;;10.12;62.78;100436.14;104527;1251;60823;-67
2023/03/19 03:38:06;;;;;;;19.50;12.50;;;;;;;10.13;62.57;100434.69;104755;1256;73332;-68
2023/03/19 03:40:40;;;;;;;19.30;12.70;;;;;;;10.18;62.51;100437.00;104597;1253;68566;-68
2023/03/19 03:43:10;;;;;;;15.60;12.30;;;;;;;10.19;61.72;100437.52;104645;1251;71519;-68
2023/03/19 03:45:38;;;;;;;16.30;12.10;;;;;;;10.24;61.26;100437.17;104717;1262;60876;-68
2023/03/19 03:48:07;;;;;;;16.00;11.20;;;;;;;10.26;61.00;100433.98;105846;1251;60702;-68
2023/03/19 03:50:36;;;;;;;16.10;11.70;;;;;;;10.28;61.40;100439.17;106838;1253;72402;-68
2023/03/19 03:53:08;;;;;;;14.00;10.80;;;;;;;10.31;62.47;100437.19;104658;1257;68395;-69
2023/03/19 03:55:38;;;;;;;15.40;10.20;;;;;;;10.32;63.24;100437.34;105249;1254;71056;-68
2023/03/19 03:58:06;;;;;;;13.80;10.80;;;;;;;10.34;63.35;100435.71;105124;1247;60744;-68
2023/03/19 04:00:35;;;;;;;12.80;10.20;;;;;;;10.36;63.70;100438.63;105224;1250;60877;-68
2023/03/19 04:03:04;;;;;;;14.20;10.60;;;;;;;10.36;63.39;100436.01;105069;1265;73911;-68
2023/03/19 04:05:33;;;;;;;11.40;9.80;;;;;;;10.37;63.66;100432.98;104852;1265;69154;-68
2023/03/19 04:08:02;;;;;;;11.40;9.60;;;;;;;10.40;63.30;100433.41;104641;1252;74225;-68
2023/03/19 04:10:32;;;;;;;11.70;9.60;;;;;;;10.46;62.86;100432.70;108843;1247;58829;-70
2023/03/19 04:13:01;;;;;;;11.10;9.70;;;;;;;10.53;63.38;100433.05;108940;1249;59393;-69
2023/03/19 04:15:30;;;;;;;9.80;8.70;;;;;;;10.61;63.38;100432.79;108927;1250;74988;-70
2023/03/19 04:17:59;;;;;;;13.00;10.10;;;;;;;10.65;63.17;100427.59;108838;1249;70414;-69
2023/03/19 04:20:27;;;;;;;13.80;9.60;;;;;;;10.68;62.86;100425.23;106065;1250;70988;-71
2023/03/19 04:22:56;;;;;;;9.80;8.90;;;;;;;10.68;63.67;100423.45;105436;1250;60782;-62
2023/03/19 04:25:25;;;;;;;13.10;9.80;;;;;;;10.69;63.52;100423.45;105019;1264;60883;-69
2023/03/19 04:27:56;;;;;;;10.50;9.40;;;;;;;10.69;63.60;100417.84;105441;1252;71475;-70
2023/03/19 04:30:26;;;;;;;10.60;8.50;;;;;;;10.75;63.32;100418.01;104738;1266;68605;-70
2023/03/19 04:32:56;;;;;;;12.30;9.60;;;;;;;10.76;63.64;100416.73;105179;1250;73217;-70
2023/03/19 04:35:27;;;;;;;10.60;9.60;;;;;;;10.78;63.36;100418.09;105222;1254;60897;-70
2023/03/19 04:37:55;;;;;;;12.50;10.50;;;;;;;10.83;62.90;100421.61;105140;1260;60899;-70
2023/03/19 04:40:24;;;;;;;10.40;9.40;;;;;;;10.81;63.22;100421.84;104834;1250;72946;-70
2023/03/19 04:42:53;;;;;;;11.90;10.40;;;;;;;10.80;63.16;100423.81;104860;1254;70442;-70
2023/03/19 04:45:40;;;;;;;12.40;9.40;;;;;;;10.74;63.67;100419.61;105130;1248;73405;-70
2023/03/19 04:48:11;;;;;;;12.10;10.30;;;;;;;10.70;63.74;100419.04;105195;1250;60869;-71
2023/03/19 04:50:40;;;;;;;13.20;11.20;;;;;;;10.73;63.93;100420.88;105244;1250;60873;-71
2023/03/19 04:53:09;;;;;;;14.00;11.80;;;;;;;10.76;64.13;100420.62;105139;1253;71418;-70
2023/03/19 04:55:38;;;;;;;20.90;13.00;;;;;;;10.76;64.22;100422.35;104690;1252;69829;-69
2023/03/19 04:58:10;;;;;;;17.70;13.80;;;;;;;10.80;64.55;100421.37;105183;1253;72232;-71
2023/03/19 05:00:39;;;;;;;16.70;13.90;;;;;;;10.81;64.18;100423.42;104788;1250;60850;-69
2023/03/19 05:03:08;;;;;;;16.50;14.10;;;;;;;10.85;64.36;100423.64;105118;1250;60855;-70
2023/03/19 05:05:37;;;;;;;22.20;16.60;;;;;;;10.89;64.56;100426.86;105021;1254;73346;-69
2023/03/19 05:08:08;;;;;;;20.20;15.60;;;;;;;10.94;64.82;100426.52;104678;1264;68984;-69
2023/03/19 05:10:37;;;;;;;18.00;14.70;;;;;;;11.02;64.69;100420.48;104701;1250;72266;-71
2023/03/19 05:13:06;;;;;;;19.30;14.40;;;;;;;11.06;64.16;100417.38;105099;1250;60934;-72
2023/03/19 05:15:43;;;;;;;22.80;15.20;;;;;;;11.09;63.49;100419.73;105035;1254;60850;-71
2023/03/19 05:18:11;;;;;;;20.60;14.30;;;;;;;11.09;63.25;100419.55;104968;1250;71969;-73
2023/03/19 05:20:44;;;;;;;19.10;13.90;;;;;;;11.08;63.50;100423.42;105216;1251;69484;-73
2023/03/19 05:23:21;;;;;;;18.00;14.70;;;;;;;11.10;63.80;100423.02;104620;1248;73628;-72
2023/03/19 05:26:10;;;;;;;17.60;13.90;;;;;;;11.09;63.99;100422.52;105058;1254;60792;-72
2023/03/19 05:29:09;;;;;;;19.70;14.70;;;;;;;11.07;63.22;100424.52;104720;1263;60885;-73
2023/03/19 05:31:51;;;;;;;15.70;13.00;;;;;;;11.06;62.96;100425.96;105279;1250;72199;-72
2023/03/19 05:34:20;;;;;;;25.30;13.30;;;;;;;11.04;63.15;100424.29;104812;1260;70366;-73
2023/03/19 05:36:48;;;;;;;18.40;14.30;;;;;;;11.06;64.08;100423.84;104786;1251;72950;-72
2023/03/19 05:39:21;;;;;;;18.90;14.40;;;;;;;11.10;64.27;100419.52;105329;1250;60911;-72
2023/03/19 05:41:51;;;;;;;17.80;13.90;;;;;;;11.19;64.06;100417.29;104917;1255;60989;-72
2023/03/19 05:44:23;;;;;;;18.90;14.70;;;;;;;11.26;64.24;100418.30;104740;1253;71738;-72
2023/03/19 05:47:10;;;;;;;18.00;13.80;;;;;;;11.33;63.80;100415.44;104782;1248;68123;-72
2023/03/19 05:49:39;;;;;;;17.10;13.60;;;;;;;11.37;62.75;100412.49;105191;1253;71944;-72
2023/03/19 05:52:08;;;;;;;16.70;13.80;;;;;;;11.40;62.42;100416.23;104760;1254;60795;-72
2023/03/19 05:54:38;;;;;;;18.80;14.30;;;;;;;11.40;62.77;100418.17;104757;1269;62207;-73
2023/03/19 05:57:12;;;;;;;16.60;14.40;;;;;;;11.43;63.48;100416.69;104689;1252;71995;-73
2023/03/19 05:59:57;;;;;;;16.30;14.00;;;;;;;11.46;64.39;100420.26;105074;1250;70172;-74
2023/03/19 06:02:35;;;;;;;18.80;14.00;;;;;;;11.49;63.95;100418.73;105113;1249;72241;-73
2023/03/19 06:05:34;;;;;;;17.70;13.60;;;;;;;11.59;63.57;100417.35;104951;1254;60863;-74
2023/03/19 06:08:09;;;;;;;14.90;12.90;;;;;;;11.64;62.77;100419.29;105105;1253;60774;-73
2023/03/19 06:10:59;;;;;;;15.90;13.50;;;;;;;11.71;62.52;100420.27;105345;1250;72093;-72
2023/03/19 06:13:27;;;;;;;17.30;12.70;;;;;;;11.72;62.98;100425.17;105721;1248;69850;-73
2023/03/19 06:15:58;;;;;;;15.70;12.70;;;;;;;11.81;62.25;100423.09;108950;1249;70873;-73
2023/03/19 06:18:35;;;;;;;16.70;13.00;;;;;;;11.93;62.07;100425.83;108850;1247;58879;-70
2023/03/19 06:21:09;;;;;;;14.40;11.90;;;;;;;12.09;60.90;100422.98;107493;1252;60469;-73
2023/03/19 06:23:40;;;;;;;13.80;11.50;;;;;;;12.24;60.59;100427.35;105119;1256;73087;-64
2023/03/19 06:26:16;;;;;;;15.10;11.90;;;;;;;12.37;59.39;100427.20;104651;1270;69272;-63
2023/03/19 06:28:52;;;;;;;13.30;10.70;;;;;;;12.49;58.41;100426.75;105148;1251;72345;-62
2023/03/19 06:31:20;;;;;;;13.10;10.80;;;;;;;12.62;57.83;100426.95;104736;1253;60864;-64
2023/03/19 06:33:55;;;;;;;12.40;10.00;;;;;;;12.73;56.55;100426.19;105246;1249;60869;-63
2023/03/19 06:36:27;;;;;;;13.80;9.60;;;;;;;12.81;54.68;100429.41;104790;1248;72742;-63
2023/03/19 06:38:57;;;;;;;10.80;9.20;;;;;;;12.84;54.98;100428.92;104860;1254;68092;-66
2023/03/19 06:41:26;;;;;;;11.40;9.50;;;;;;;12.95;54.13;100426.73;105506;1251;72891;-68
2023/03/19 06:44:00;;;;;;;10.40;9.30;;;;;;;13.01;53.78;100425.80;104594;1258;60842;-65
2023/03/19 06:46:29;;;;;;;8.90;7.90;;;;;;;13.12;53.29;100428.86;105186;1251;60844;-62
2023/03/19 06:48:57;;;;;;;9.90;7.60;;;;;;;13.17;52.21;100428.46;105355;1253;71947;-65
2023/03/19 06:51:27;;;;;;;7.90;7.10;;;;;;;13.26;53.13;100430.40;105133;1250;68675;-65
2023/03/19 06:53:56;;;;;;;7.70;6.90;;;;;;;13.32;52.30;100424.36;105132;1250;70998;-65
2023/03/19 06:56:24;;;;;;;6.60;6.00;;;;;;;13.41;51.46;100422.77;104836;1254;60925;-66
2023/03/19 06:58:55;;;;;;;6.20;5.60;;;;;;;13.42;48.78;100417.44;105175;1250;61100;-65
2023/03/19 07:01:23;;;;;;;5.40;4.70;;;;;;;13.50;47.58;100422.55;105195;1250;72639;-67
2023/03/19 07:03:52;;;;;;;6.30;5.70;;;;;;;13.57;47.29;100418.73;105343;1252;68757;-65
2023/03/19 07:06:22;;;;;;;6.40;5.80;;;;;;;13.62;47.19;100422.04;105130;1247;72466;-65
2023/03/19 07:08:51;;;;;;;6.50;5.90;;;;;;;13.61;46.96;100418.55;105205;1262;60934;-65
2023/03/19 07:11:20;;;;;;;7.60;6.20;;;;;;;13.69;47.12;100421.58;105284;1248;60927;-63
2023/03/19 07:13:50;;;;;;;7.10;6.40;;;;;;;13.71;47.85;100423.45;105166;1249;72827;-67
2023/03/19 07:16:19;;;;;;;6.50;5.80;;;;;;;13.77;46.50;100419.98;104974;1249;69123;-65
2023/03/19 07:18:51;;;;;;;6.50;5.90;;;;;;;13.79;46.17;100422.88;104814;1251;73054;-65
2023/03/19 07:21:21;;;;;;;7.80;6.00;;;;;;;13.79;46.22;100426.93;105142;1251;61674;-65
2023/03/19 07:23:49;;;;;;;7.50;5.70;;;;;;;13.81;45.97;100426.53;105082;1250;61586;-68
2023/03/19 07:26:19;;;;;;;6.60;5.70;;;;;;;13.82;44.86;100430.89;105061;1250;72933;-66
2023/03/19 07:28:48;;;;;;;10.90;5.70;;;;;;;13.83;45.19;100431.73;105015;1253;67749;-67
2023/03/19 07:31:16;;;;;;;5.80;5.20;;;;;;;13.86;44.71;100434.41;105127;1252;72907;-67
2023/03/19 07:33:50;;;;;;;6.00;5.50;;;;;;;13.92;44.95;100433.96;105016;1250;61768;-67
2023/03/19 07:36:20;;;;;;;6.50;5.80;;;;;;;14.01;45.07;100438.36;105133;1251;61575;-65
2023/03/19 07:38:48;;;;;;;6.70;6.00;;;;;;;14.08;44.35;100437.52;105114;1258;73093;-64
2023/03/19 07:41:18;;;;;;;8.10;6.00;;;;;;;14.09;44.52;100435.52;105093;1247;69317;-64
2023/03/19 07:43:47;;;;;;;7.00;6.40;;;;;;;14.09;44.31;100438.84;105108;1259;72229;-62
2023/03/19 07:46:16;;;;;;;7.10;6.40;;;;;;;14.13;44.44;100437.80;105062;1252;61771;-65
2023/03/19 07:48:45;;;;;;;7.40;6.70;;;;;;;14.17;44.22;100433.56;105069;1248;61681;-66
2023/03/19 07:51:14;;;;;;;6.00;5.40;;;;;;;14.21;44.34;100435.13;105141;1256;72871;-65
2023/03/19 07:53:45;;;;;;;8.70;6.30;;;;;;;14.34;44.04;100431.37;107706;1248;68866;-65
2023/03/19 07:56:14;;;;;;;6.70;6.10;;;;;;;14.47;44.15;100427.26;108945;1247;72578;-66
2023/03/19 07:58:42;;;;;;;7.50;6.40;;;;;;;14.56;43.84;100431.44;105597;1254;61925;-66
2023/03/19 08:01:14;;;;;;;6.70;6.10;;;;;;;14.62;43.57;100426.79;105150;1269;61595;-65
2023/03/19 08:03:43;;;;;;;7.40;6.20;;;;;;;14.68;42.76;100423.47;105239;1254;72621;-65
2023/03/19 08:06:11;;;;;;;7.10;6.50;;;;;;;14.73;43.04;100423.59;105168;1252;69457;-64
2023/03/19 08:08:39;;;;;;;7.00;6.40;;;;;;;14.87;42.74;100423.27;105399;1249;72644;-63
2023/03/19 08:11:08;;;;;;;6.40;5.70;;;;;;;14.98;42.05;100423.30;105061;1267;61580;-64
2023/03/19 08:13:37;;;;;;;8.20;6.40;;;;;;;15.09;42.16;100416.92;105387;1253;61675;-63
2023/03/19 08:16:12;;;;;;;8.90;5.90;;;;;;;15.25;42.21;100417.70;105375;1250;73486;-65
2023/03/19 08:18:42;;;;;;;10.00;6.40;;;;;;;15.36;41.54;100406.77;105040;1249;69386;-63
2023/03/19 08:21:11;;;;;;;7.30;6.40;;;;;;;15.41;41.29;100407.76;105109;1250;71993;-68
2023/03/19 08:23:39;;;;;;;11.50;6.50;;;;;;;15.41;39.96;100410.91;104782;1255;61554;-69
2023/03/19 08:26:07;;;;;;;7.20;6.50;;;;;;;15.34;40.55;100406.69;105023;1256;61675;-71
2023/03/19 08:28:39;;;;;;;9.70;6.10;;;;;;;15.38;40.70;100405.26;104814;1250;74436;-65
2023/03/19 08:31:11;;;;;;;7.60;6.10;;;;;;;15.48;41.49;100403.16;104810;1250;69353;-67
2023/03/19 08:33:40;;;;;;;6.00;5.50;;;;;;;15.53;41.23;100403.56;104763;1270;71517;-63
2023/03/19 08:36:11;;;;;;;6.30;5.70;;;;;;;15.66;40.91;100400.78;105120;1253;61560;-65
2023/03/19 08:38:40;;;;;;;6.50;5.80;;;;;;;15.84;40.76;100400.04;104959;1254;61462;-65
2023/03/19 08:41:11;;;;;;;5.80;5.10;;;;;;;15.94;40.15;100401.84;104924;1253;72114;-65
2023/03/19 08:43:39;;;;;;;7.50;5.40;;;;;;;15.94;40.42;100400.96;104780;1250;69201;-66
2023/03/19 08:46:08;;;;;;;5.60;4.90;;;;;;;15.98;39.82;100401.98;104992;1254;71973;-64
2023/03/19 08:48:37;;;;;;;5.80;5.30;;;;;;;15.92;39.27;100404.77;104773;1266;61788;-63
2023/03/19 08:51:11;;;;;;;5.70;5.10;;;;;;;15.77;39.38;100396.20;104886;1251;61724;-64
2023/03/19 08:53:40;;;;;;;7.30;6.10;;;;;;;15.72;39.42;100393.25;105168;1254;74199;-62
2023/03/19 08:56:08;;;;;;;5.80;5.20;;;;;;;15.69;39.71;100388.61;104684;1253;69479;-63
2023/03/19 08:58:41;;;;;;;5.60;5.00;;;;;;;15.61;39.47;100381.98;104905;1258;72119;-62
2023/03/19 09:01:11;;;;;;;5.60;4.70;;;;;;;15.61;40.13;100374.74;104846;1252;61618;-64
2023/03/19 09:03:40;;;;;;;5.90;4.60;;;;;;;15.71;39.85;100377.95;104909;1260;61021;-62
2023/03/19 09:06:11;;;;;;;5.30;4.80;;;;;;;15.85;39.98;100378.11;104763;1266;72101;-63
2023/03/19 09:08:57;;;;;;;5.40;4.90;;;;;;;15.97;38.96;100377.14;104994;1252;69019;-62
2023/03/19 09:11:26;;;;;;;6.10;4.90;;;;;;;16.01;39.28;100373.73;105051;1250;72671;-63
2023/03/19 09:13:56;;;;;;;5.60;5.10;;;;;;;16.02;39.30;100369.62;108900;1249;61163;-63
2023/03/19 09:16:25;;;;;;;5.10;4.60;;;;;;;16.06;38.57;100363.73;107647;1253;60365;-64
2023/03/19 09:18:55;;;;;;;5.10;4.60;;;;;;;16.10;38.71;100359.77;105257;1250;72784;-62
2023/03/19 09:21:27;;;;;;;4.30;3.70;;;;;;;16.20;38.76;100354.10;105376;1253;69423;-62
2023/03/19 09:23:56;;;;;;;4.10;3.70;;;;;;;16.25;38.45;100350.33;104946;1267;71709;-62
2023/03/19 09:26:24;;;;;;;4.00;3.70;;;;;;;16.21;38.37;100349.83;105217;1250;61723;-61
2023/03/19 09:28:53;;;;;;;3.90;3.60;;;;;;;16.23;38.39;100344.23;104894;1249;61694;-62
2023/03/19 09:31:27;;;;;;;4.80;3.60;;;;;;;16.29;37.80;100338.95;105019;1254;73917;-62
2023/03/19 09:33:57;;;;;;;3.30;3.10;;;;;;;16.37;38.13;100337.79;104840;1254;68794;-62
2023/03/19 09:36:25;;;;;;;3.40;3.20;;;;;;;16.47;37.20;100344.64;105098;1254;71031;-62
2023/03/19 09:38:54;;;;;;;3.00;2.70;;;;;;;16.60;37.22;100340.60;104806;1251;61691;-61
2023/03/19 09:41:38;;;;;;;3.50;3.20;;;;;;;16.71;36.72;100338.72;104962;1253;61574;-66
2023/03/19 09:44:15;;;;;;;3.40;2.90;;;;;;;16.84;36.16;100331.09;104787;1253;73525;-62
2023/03/19 09:46:45;;;;;;;3.50;3.10;;;;;;;16.91;35.71;100331.74;104998;1253;70743;-63
2023/03/19 09:49:28;;;;;;;3.00;2.70;;;;;;;17.01;35.83;100334.70;104875;1253;71154;-63
2023/03/19 09:52:18;;;;;;;3.70;3.40;;;;;;;17.06;35.99;100332.33;105127;1250;62336;-63
2023/03/19 09:54:51;;;;;;;5.40;2.90;;;;;;;17.18;36.34;100328.89;104683;1250;61708;-62
2023/03/19 09:57:21;;;;;;;2.90;2.70;;;;;;;17.34;35.90;100331.71;107981;1250;74640;-65
2023/03/19 09:59:52;;;;;;;3.10;2.70;;;;;;;17.35;35.58;100325.80;108896;1250;68882;-65
2023/03/19 10:02:26;;;;;;;2.80;2.50;;;;;;;17.46;35.75;100325.13;108856;1250;72433;-68
2023/03/19 10:04:58;;;;;;;2.30;2.10;;;;;;;17.45;35.35;100322.16;108827;1250;59717;-65
2023/03/19 10:07:31;;;;;;;2.30;2.10;;;;;;;17.49;35.78;100324.57;108721;1250;60093;-67
2023/03/19 10:10:22;;;;;;;3.30;2.30;;;;;;;17.55;35.48;100319.09;106074;1250;72382;-63
2023/03/19 10:13:03;;;;;;;2.60;2.40;;;;;;;17.58;34.68;100317.13;104850;1250;68990;-64
2023/03/19 10:15:32;;;;;;;2.90;2.60;;;;;;;17.54;34.87;100310.48;105046;1255;72805;-68
2023/03/19 10:18:12;;;;;;;2.60;2.40;;;;;;;17.53;35.30;100309.11;104735;1255;61758;-67
2023/03/19 10:20:47;;;;;;;2.70;2.50;;;;;;;17.56;35.13;100302.36;105222;1250;61606;-68
2023/03/19 10:23:28;;;;;;;2.90;2.60;;;;;;;17.57;34.24;100297.13;104926;1254;73446;-65
2023/03/19 10:25:57;;;;;;;2.80;2.60;;;;;;;17.53;34.61;100294.58;105045;1259;69628;-71
2023/03/19 10:28:28;;;;;;;2.80;2.60;;;;;;;17.46;34.43;100286.15;104929;1255;71734;-64
2023/03/19 10:31:27;;;;;;;2.70;2.50;;;;;;;17.49;34.78;100279.95;104857;1251;61903;-65
2023/03/19 10:34:11;;;;;;;2.60;2.40;;;;;;;17.59;34.02;100273.83;104736;1254;61593;-64
2023/03/19 10:36:39;;;;;;;2.90;2.60;;;;;;;17.65;34.16;100271.29;104754;1251;74382;-64
2023/03/19 10:39:08;;;;;;;3.20;2.90;;;;;;;17.78;33.77;100272.11;105229;1250;67985;-64
2023/03/19 10:41:46;;;;;;;3.60;2.70;;;;;;;17.87;33.54;100267.28;104711;1258;73352;-63
2023/03/19 10:44:28;;;;;;;3.80;3.30;;;;;;;18.02;33.72;100266.04;104856;1266;61698;-64
2023/03/19 10:46:58;;;;;;;3.00;2.70;;;;;;;18.16;33.44;100260.54;105025;1262;61720;-64
2023/03/19 10:49:27;;;;;;;3.40;2.80;;;;;;;18.21;33.35;100260.16;104829;1249;72612;-61
2023/03/19 10:51:56;;;;;;;3.40;3.10;;;;;;;18.24;33.27;100258.05;104884;1250;69430;-63
2023/03/19 10:54:25;;;;;;;3.70;3.00;;;;;;;18.29;32.62;100254.33;105005;1250;71195;-63
2023/03/19 10:56:55;;;;;;;4.20;2.60;;;;;;;18.38;32.41;100248.80;104929;1262;61714;-63
2023/03/19 10:59:30;;;;;;;2.70;2.50;;;;;;;18.44;32.67;100242.55;104894;1250;61559;-62
2023/03/19 11:02:19;;;;;;;3.20;2.90;;;;;;;18.44;32.42;100237.91;105057;1253;73587;-63
2023/03/19 11:04:48;;;;;;;2.70;2.50;;;;;;;18.47;32.13;100238.27;104956;1252;67992;-62
2023/03/19 11:07:18;;;;;;;2.40;2.30;;;;;;;18.52;32.27;100234.20;105273;1250;72316;-63
2023/03/19 11:09:48;;;;;;;3.00;2.70;;;;;;;18.54;31.91;100231.21;105129;1250;61691;-64
2023/03/19 11:12:24;;;;;;;2.90;2.70;;;;;;;18.54;31.35;100229.96;104906;1256;61653;-62
2023/03/19 11:14:53;;;;;;;3.00;2.80;;;;;;;18.54;31.44;100226.43;107429;1250;73464;-63
2023/03/19 11:17:35;;;;;;;2.30;2.10;;;;;;;18.55;31.91;100226.86;108047;1250;68272;-64
2023/03/19 11:20:20;;;;;;;2.70;2.30;;;;;;;18.54;31.86;100228.77;105199;1250;73436;-63
2023/03/19 11:22:51;;;;;;;3.40;3.10;;;;;;;18.52;32.27;100223.73;105005;1251;62099;-63
2023/03/19 11:25:25;;;;;;;3.40;2.70;;;;;;;18.55;32.94;100220.12;105144;1253;63064;-65
2023/03/19 11:28:00;;;;;;;3.40;2.60;;;;;;;18.69;31.93;100222.03;105192;1261;73460;-65
2023/03/19 11:30:38;;;;;;;3.30;3.00;;;;;;;18.79;31.99;100222.45;105286;1253;69111;-65
2023/03/19 11:33:37;;;;;;;3.90;3.00;;;;;;;18.84;32.09;100214.83;105044;1251;73110;-65